sensor_id;sensor_type;location;lat;lon;timestamp;pressure;altitude;pressure_sealevel;temperature;humidity
50384;BME280;36301;48.310;12.786;2022-10-16T00:01:09;96328.78;;;11.50;100.00
50384;BME280;36301;48.310;12.786;2022-10-16T00:03:38;96333.78;;;11.58;100.00
50384;BME280;36301;48.310;12.786;2022-10-16T00:06:05;96335.00;;;11.64;100.00
50384;BME280;36301;48.310;12.786;2022-10-16T00:08:32;96341.09;;;11.68;100.00
50384;BME280;36301;48.310;12.786;2022-10-16T00:11:03;96337.31;;;11.66;100.00
50384;BME280;36301;48.310;12.786;2022-10-16T00:13:31;96342.94;;;11.64;100.00
50384;BME280;36301;48.310;12.786;2022-10-16T00:15:59;96337.63;;;11.61;100.00
50384;BME280;36301;48.310;12.786;2022-10-16T00:18:27;96340.31;;;11.64;100.00
50384;BME280;36301;48.310;12.786;2022-10-16T00:20:54;96343.72;;;11.65;100.00
50384;BME280;36301;48.310;12.786;2022-10-16T00:23:25;96346.78;;;11.67;100.00
50384;BME280;36301;48.310;12.786;2022-10-16T00:26:00;96348.75;;;11.74;100.00
50384;BME280;36301;48.310;12.786;2022-10-16T00:28:27;96346.03;;;11.70;100.00
50384;BME280;36301;48.310;12.786;2022-10-16T00:30:54;96341.88;;;11.69;100.00
50384;BME280;36301;48.310;12.786;2022-10-16T00:33:21;96340.31;;;11.64;100.00
50384;BME280;36301;48.310;12.786;2022-10-16T00:35:48;96338.03;;;11.63;100.00
50384;BME280;36301;48.310;12.786;2022-10-16T00:38:15;96333.00;;;11.54;100.00
50384;BME280;36301;48.310;12.786;2022-10-16T00:40:41;96342.44;;;11.52;100.00
50384;BME280;36301;48.310;12.786;2022-10-16T00:46:00;96343.78;;;11.38;100.00
50384;BME280;36301;48.310;12.786;2022-10-16T00:48:26;96333.81;;;11.28;100.00
50384;BME280;36301;48.310;12.786;2022-10-16T00:50:53;96337.94;;;11.22;100.00
50384;BME280;36301;48.310;12.786;2022-10-16T00:53:21;96328.34;;;11.14;100.00
50384;BME280;36301;48.310;12.786;2022-10-16T00:55:48;96332.84;;;11.10;100.00
50384;BME280;36301;48.310;12.786;2022-10-16T00:58:14;96346.06;;;11.06;100.00
50384;BME280;36301;48.310;12.786;2022-10-16T01:00:41;96337.22;;;10.95;100.00
50384;BME280;36301;48.310;12.786;2022-10-16T01:03:31;96352.44;;;11.02;100.00
50384;BME280;36301;48.310;12.786;2022-10-16T01:06:07;96354.25;;;10.98;100.00
50384;BME280;36301;48.310;12.786;2022-10-16T01:08:44;96360.69;;;10.97;100.00
50384;BME280;36301;48.310;12.786;2022-10-16T01:11:31;96358.84;;;11.01;100.00
50384;BME280;36301;48.310;12.786;2022-10-16T01:14:05;96357.50;;;11.14;100.00
50384;BME280;36301;48.310;12.786;2022-10-16T01:17:00;96366.56;;;11.13;100.00
50384;BME280;36301;48.310;12.786;2022-10-16T01:19:37;96370.75;;;11.14;100.00
50384;BME280;36301;48.310;12.786;2022-10-16T01:22:09;96366.13;;;11.07;100.00
50384;BME280;36301;48.310;12.786;2022-10-16T01:24:41;96367.13;;;10.99;100.00
50384;BME280;36301;48.310;12.786;2022-10-16T01:27:21;96361.38;;;10.94;100.00
50384;BME280;36301;48.310;12.786;2022-10-16T01:30:02;96355.19;;;10.82;100.00
50384;BME280;36301;48.310;12.786;2022-10-16T01:32:48;96352.00;;;10.73;100.00
50384;BME280;36301;48.310;12.786;2022-10-16T01:38:37;96353.97;;;10.76;100.00
50384;BME280;36301;48.310;12.786;2022-10-16T01:41:11;96351.63;;;10.71;100.00
50384;BME280;36301;48.310;12.786;2022-10-16T01:43:46;96361.03;;;10.69;100.00
50384;BME280;36301;48.310;12.786;2022-10-16T01:46:16;96346.50;;;10.59;100.00
50384;BME280;36301;48.310;12.786;2022-10-16T01:48:45;96349.47;;;10.54;100.00
50384;BME280;36301;48.310;12.786;2022-10-16T01:51:13;96354.44;;;10.59;100.00
50384;BME280;36301;48.310;12.786;2022-10-16T01:53:43;96353.59;;;10.51;100.00
50384;BME280;36301;48.310;12.786;2022-10-16T01:56:13;96367.13;;;10.46;100.00
50384;BME280;36301;48.310;12.786;2022-10-16T01:58:51;96367.81;;;10.43;100.00
50384;BME280;36301;48.310;12.786;2022-10-16T02:01:22;96361.31;;;10.37;100.00
50384;BME280;36301;48.310;12.786;2022-10-16T02:03:53;96359.34;;;10.57;100.00
50384;BME280;36301;48.310;12.786;2022-10-16T02:06:20;96361.00;;;10.65;100.00
50384;BME280;36301;48.310;12.786;2022-10-16T02:08:48;96357.22;;;10.66;100.00
50384;BME280;36301;48.310;12.786;2022-10-16T02:11:14;96361.75;;;10.65;100.00
50384;BME280;36301;48.310;12.786;2022-10-16T02:13:48;96362.38;;;10.59;100.00
50384;BME280;36301;48.310;12.786;2022-10-16T02:16:16;96371.75;;;10.53;100.00
50384;BME280;36301;48.310;12.786;2022-10-16T02:18:43;96362.19;;;10.45;100.00
50384;BME280;36301;48.310;12.786;2022-10-16T02:21:20;96377.34;;;10.48;100.00
50384;BME280;36301;48.310;12.786;2022-10-16T02:24:11;96382.19;;;10.42;100.00
50384;BME280;36301;48.310;12.786;2022-10-16T02:26:57;96370.00;;;10.37;100.00
50384;BME280;36301;48.310;12.786;2022-10-16T02:29:26;96369.19;;;10.33;100.00
50384;BME280;36301;48.310;12.786;2022-10-16T02:32:02;96359.66;;;10.29;100.00
50384;BME280;36301;48.310;12.786;2022-10-16T02:34:32;96362.78;;;10.34;100.00
50384;BME280;36301;48.310;12.786;2022-10-16T02:37:02;96366.19;;;10.35;100.00
50384;BME280;36301;48.310;12.786;2022-10-16T02:39:30;96362.72;;;10.31;100.00
50384;BME280;36301;48.310;12.786;2022-10-16T02:41:57;96366.41;;;10.26;100.00
50384;BME280;36301;48.310;12.786;2022-10-16T02:44:24;96371.72;;;10.26;100.00
50384;BME280;36301;48.310;12.786;2022-10-16T02:46:50;96363.63;;;10.19;100.00
50384;BME280;36301;48.310;12.786;2022-10-16T02:49:17;96382.97;;;10.23;100.00
50384;BME280;36301;48.310;12.786;2022-10-16T02:51:44;96384.94;;;10.26;100.00
50384;BME280;36301;48.310;12.786;2022-10-16T02:54:10;96395.53;;;10.26;100.00
50384;BME280;36301;48.310;12.786;2022-10-16T02:56:37;96393.72;;;10.30;100.00
50384;BME280;36301;48.310;12.786;2022-10-16T02:59:03;96401.97;;;10.29;100.00
50384;BME280;36301;48.310;12.786;2022-10-16T03:01:30;96402.34;;;10.27;100.00
50384;BME280;36301;48.310;12.786;2022-10-16T03:03:56;96401.97;;;10.29;100.00
50384;BME280;36301;48.310;12.786;2022-10-16T03:06:23;96407.34;;;10.32;100.00
50384;BME280;36301;48.310;12.786;2022-10-16T03:08:49;96396.34;;;10.30;100.00
50384;BME280;36301;48.310;12.786;2022-10-16T03:11:16;96388.00;;;10.28;100.00
50384;BME280;36301;48.310;12.786;2022-10-16T03:13:42;96408.94;;;10.37;100.00
50384;BME280;36301;48.310;12.786;2022-10-16T03:16:09;96387.50;;;10.23;100.00
50384;BME280;36301;48.310;12.786;2022-10-16T03:18:35;96406.50;;;10.28;100.00
50384;BME280;36301;48.310;12.786;2022-10-16T03:21:02;96407.13;;;10.22;100.00
50384;BME280;36301;48.310;12.786;2022-10-16T03:23:28;96400.19;;;10.13;100.00
50384;BME280;36301;48.310;12.786;2022-10-16T03:25:56;96410.44;;;10.15;100.00
50384;BME280;36301;48.310;12.786;2022-10-16T03:28:22;96410.34;;;10.11;100.00
50384;BME280;36301;48.310;12.786;2022-10-16T03:30:49;96397.34;;;10.03;100.00
50384;BME280;36301;48.310;12.786;2022-10-16T03:33:15;96409.97;;;10.09;100.00
50384;BME280;36301;48.310;12.786;2022-10-16T03:35:42;96397.13;;;10.11;100.00
50384;BME280;36301;48.310;12.786;2022-10-16T03:38:08;96395.13;;;10.24;100.00
50384;BME280;36301;48.310;12.786;2022-10-16T03:40:35;96396.19;;;10.43;100.00
50384;BME280;36301;48.310;12.786;2022-10-16T03:43:01;96401.66;;;10.30;100.00
50384;BME280;36301;48.310;12.786;2022-10-16T03:45:28;96400.97;;;10.14;100.00
50384;BME280;36301;48.310;12.786;2022-10-16T03:47:54;96397.78;;;10.05;100.00
50384;BME280;36301;48.310;12.786;2022-10-16T03:50:20;96398.06;;;10.00;100.00
50384;BME280;36301;48.310;12.786;2022-10-16T03:52:47;96387.06;;;9.98;100.00
50384;BME280;36301;48.310;12.786;2022-10-16T03:55:13;96399.50;;;9.97;100.00
50384;BME280;36301;48.310;12.786;2022-10-16T03:57:40;96393.63;;;9.84;100.00
50384;BME280;36301;48.310;12.786;2022-10-16T04:00:07;96403.16;;;9.89;100.00
50384;BME280;36301;48.310;12.786;2022-10-16T04:02:33;96405.81;;;9.89;100.00
50384;BME280;36301;48.310;12.786;2022-10-16T04:05:00;96415.53;;;9.85;100.00
50384;BME280;36301;48.310;12.786;2022-10-16T04:07:26;96406.78;;;9.81;100.00
50384;BME280;36301;48.310;12.786;2022-10-16T04:09:53;96412.81;;;9.81;100.00
50384;BME280;36301;48.310;12.786;2022-10-16T04:12:20;96412.81;;;9.81;100.00
50384;BME280;36301;48.310;12.786;2022-10-16T04:14:46;96409.22;;;9.70;100.00
50384;BME280;36301;48.310;12.786;2022-10-16T04:17:13;96412.81;;;9.62;100.00
50384;BME280;36301;48.310;12.786;2022-10-16T04:19:39;96424.88;;;9.59;100.00
50384;BME280;36301;48.310;12.786;2022-10-16T04:22:06;96421.75;;;9.54;100.00
50384;BME280;36301;48.310;12.786;2022-10-16T04:24:32;96425.91;;;9.55;100.00
50384;BME280;36301;48.310;12.786;2022-10-16T04:26:59;96428.56;;;9.55;100.00
50384;BME280;36301;48.310;12.786;2022-10-16T04:29:25;96418.25;;;9.50;100.00
50384;BME280;36301;48.310;12.786;2022-10-16T04:31:52;96401.41;;;9.39;100.00
50384;BME280;36301;48.310;12.786;2022-10-16T04:34:18;96422.69;;;9.46;100.00
50384;BME280;36301;48.310;12.786;2022-10-16T04:36:47;96419.22;;;9.42;100.00
50384;BME280;36301;48.310;12.786;2022-10-16T04:39:15;96412.41;;;9.41;100.00
50384;BME280;36301;48.310;12.786;2022-10-16T04:41:42;96413.44;;;9.36;100.00
50384;BME280;36301;48.310;12.786;2022-10-16T04:44:09;96416.16;;;9.40;100.00
50384;BME280;36301;48.310;12.786;2022-10-16T04:46:35;96420.72;;;9.43;100.00
50384;BME280;36301;48.310;12.786;2022-10-16T04:49:02;96420.59;;;9.35;100.00
50384;BME280;36301;48.310;12.786;2022-10-16T04:51:28;96421.72;;;9.34;100.00
50384;BME280;36301;48.310;12.786;2022-10-16T04:53:54;96428.03;;;9.30;100.00
50384;BME280;36301;48.310;12.786;2022-10-16T04:56:21;96438.25;;;9.31;100.00
50384;BME280;36301;48.310;12.786;2022-10-16T04:58:48;96443.03;;;9.26;100.00
50384;BME280;36301;48.310;12.786;2022-10-16T05:01:14;96430.19;;;9.24;100.00
50384;BME280;36301;48.310;12.786;2022-10-16T05:03:41;96431.28;;;9.23;100.00
50384;BME280;36301;48.310;12.786;2022-10-16T05:06:07;96438.25;;;9.31;100.00
50384;BME280;36301;48.310;12.786;2022-10-16T05:08:34;96433.59;;;9.25;100.00
50384;BME280;36301;48.310;12.786;2022-10-16T05:11:00;96443.66;;;9.19;100.00
50384;BME280;36301;48.310;12.786;2022-10-16T05:13:27;96444.78;;;9.18;100.00
50384;BME280;36301;48.310;12.786;2022-10-16T05:15:54;96443.66;;;9.19;100.00
50384;BME280;36301;48.310;12.786;2022-10-16T05:18:20;96446.38;;;9.23;100.00
50384;BME280;36301;48.310;12.786;2022-10-16T05:20:47;96442.94;;;9.22;100.00
50384;BME280;36301;48.310;12.786;2022-10-16T05:23:13;96433.16;;;9.23;100.00
50384;BME280;36301;48.310;12.786;2022-10-16T05:25:40;96441.88;;;9.23;100.00
50384;BME280;36301;48.310;12.786;2022-10-16T05:28:06;96450.28;;;9.29;100.00
50384;BME280;36301;48.310;12.786;2022-10-16T05:30:32;96429.91;;;9.29;100.00
50384;BME280;36301;48.310;12.786;2022-10-16T05:32:59;96438.69;;;9.53;100.00
50384;BME280;36301;48.310;12.786;2022-10-16T05:35:25;96432.31;;;9.54;100.00
50384;BME280;36301;48.310;12.786;2022-10-16T05:37:52;96435.63;;;9.51;100.00
50384;BME280;36301;48.310;12.786;2022-10-16T05:40:18;96429.31;;;9.55;100.00
50384;BME280;36301;48.310;12.786;2022-10-16T05:42:45;96426.81;;;9.82;100.00
50384;BME280;36301;48.310;12.786;2022-10-16T05:45:11;96432.03;;;9.98;100.00
50384;BME280;36301;48.310;12.786;2022-10-16T05:47:38;96436.69;;;10.24;100.00
50384;BME280;36301;48.310;12.786;2022-10-16T05:50:06;96425.88;;;10.32;100.00
50384;BME280;36301;48.310;12.786;2022-10-16T05:52:32;96425.22;;;10.39;100.00
50384;BME280;36301;48.310;12.786;2022-10-16T05:54:59;96435.25;;;10.49;100.00
50384;BME280;36301;48.310;12.786;2022-10-16T05:57:25;96438.78;;;10.57;100.00
50384;BME280;36301;48.310;12.786;2022-10-16T05:59:52;96441.22;;;10.69;100.00
50384;BME280;36301;48.310;12.786;2022-10-16T06:02:19;96439.16;;;10.82;100.00
50384;BME280;36301;48.310;12.786;2022-10-16T06:04:45;96435.25;;;10.99;100.00
50384;BME280;36301;48.310;12.786;2022-10-16T06:07:12;96435.97;;;11.22;100.00
50384;BME280;36301;48.310;12.786;2022-10-16T06:09:38;96436.38;;;11.51;100.00
50384;BME280;36301;48.310;12.786;2022-10-16T06:12:05;96445.72;;;11.71;100.00
50384;BME280;36301;48.310;12.786;2022-10-16T06:14:32;96444.06;;;11.89;100.00
50384;BME280;36301;48.310;12.786;2022-10-16T06:16:58;96446.56;;;12.09;100.00
50384;BME280;36301;48.310;12.786;2022-10-16T06:19:25;96451.59;;;12.17;100.00
50384;BME280;36301;48.310;12.786;2022-10-16T06:21:51;96456.31;;;12.35;100.00
50384;BME280;36301;48.310;12.786;2022-10-16T06:24:18;96444.53;;;12.36;100.00
50384;BME280;36301;48.310;12.786;2022-10-16T06:26:44;96445.69;;;12.35;100.00
50384;BME280;36301;48.310;12.786;2022-10-16T06:29:11;96455.69;;;12.49;100.00
50384;BME280;36301;48.310;12.786;2022-10-16T06:31:37;96455.31;;;12.50;100.00
50384;BME280;36301;48.310;12.786;2022-10-16T06:34:04;96466.03;;;12.61;100.00
50384;BME280;36301;48.310;12.786;2022-10-16T06:36:32;96469.09;;;12.66;100.00
50384;BME280;36301;48.310;12.786;2022-10-16T06:38:58;96474.50;;;12.73;100.00
50384;BME280;36301;48.310;12.786;2022-10-16T06:41:25;96481.63;;;12.66;100.00
50384;BME280;36301;48.310;12.786;2022-10-16T06:43:51;96478.16;;;12.62;100.00
50384;BME280;36301;48.310;12.786;2022-10-16T06:46:21;96477.31;;;12.51;100.00
50384;BME280;36301;48.310;12.786;2022-10-16T06:48:48;96495.66;;;12.63;100.00
50384;BME280;36301;48.310;12.786;2022-10-16T06:51:18;96496.00;;;12.58;100.00
50384;BME280;36301;48.310;12.786;2022-10-16T06:53:50;96496.75;;;12.58;100.00
50384;BME280;36301;48.310;12.786;2022-10-16T06:56:29;96493.06;;;12.70;100.00
50384;BME280;36301;48.310;12.786;2022-10-16T06:58:58;96497.28;;;12.75;100.00
50384;BME280;36301;48.310;12.786;2022-10-16T07:01:25;96493.78;;;12.67;100.00
50384;BME280;36301;48.310;12.786;2022-10-16T07:03:53;96495.72;;;12.70;100.00
50384;BME280;36301;48.310;12.786;2022-10-16T07:06:22;96509.81;;;12.74;100.00
50384;BME280;36301;48.310;12.786;2022-10-16T07:08:49;96518.16;;;12.76;100.00
50384;BME280;36301;48.310;12.786;2022-10-16T07:11:18;96522.38;;;12.81;100.00
50384;BME280;36301;48.310;12.786;2022-10-16T07:13:46;96518.97;;;12.80;100.00
50384;BME280;36301;48.310;12.786;2022-10-16T07:16:25;96535.78;;;12.95;100.00
50384;BME280;36301;48.310;12.786;2022-10-16T07:18:54;96536.94;;;12.97;100.00
50384;BME280;36301;48.310;12.786;2022-10-16T07:21:26;96541.19;;;13.06;100.00
50384;BME280;36301;48.310;12.786;2022-10-16T07:23:55;96550.34;;;13.08;100.00
50384;BME280;36301;48.310;12.786;2022-10-16T07:26:22;96554.22;;;13.18;100.00
50384;BME280;36301;48.310;12.786;2022-10-16T07:28:50;96541.31;;;13.20;100.00
50384;BME280;36301;48.310;12.786;2022-10-16T07:31:18;96552.53;;;13.40;100.00
50384;BME280;36301;48.310;12.786;2022-10-16T07:33:46;96551.41;;;13.44;100.00
50384;BME280;36301;48.310;12.786;2022-10-16T07:36:16;96555.22;;;13.47;100.00
50384;BME280;36301;48.310;12.786;2022-10-16T07:38:43;96546.91;;;13.52;100.00
50384;BME280;36301;48.310;12.786;2022-10-16T07:41:15;96542.44;;;13.67;100.00
50384;BME280;36301;48.310;12.786;2022-10-16T07:43:48;96546.44;;;14.01;100.00
50384;BME280;36301;48.310;12.786;2022-10-16T07:46:15;96542.41;;;14.43;100.00
50384;BME280;36301;48.310;12.786;2022-10-16T07:48:43;96545.94;;;14.79;100.00
50384;BME280;36301;48.310;12.786;2022-10-16T07:51:13;96552.84;;;14.98;100.00
50384;BME280;36301;48.310;12.786;2022-10-16T07:53:40;96546.69;;;14.55;100.00
50384;BME280;36301;48.310;12.786;2022-10-16T07:56:07;96552.69;;;14.41;100.00
50384;BME280;36301;48.310;12.786;2022-10-16T07:58:34;96553.91;;;14.51;100.00
50384;BME280;36301;48.310;12.786;2022-10-16T08:01:05;96550.50;;;14.65;100.00
50384;BME280;36301;48.310;12.786;2022-10-16T08:03:32;96541.38;;;14.66;100.00
50384;BME280;36301;48.310;12.786;2022-10-16T08:05:59;96555.09;;;14.82;100.00
50384;BME280;36301;48.310;12.786;2022-10-16T08:08:26;96543.69;;;14.92;100.00
50384;BME280;36301;48.310;12.786;2022-10-16T08:10:53;96550.97;;;15.06;100.00
50384;BME280;36301;48.310;12.786;2022-10-16T08:13:20;96561.97;;;15.04;100.00
50384;BME280;36301;48.310;12.786;2022-10-16T08:15:47;96556.66;;;15.15;100.00
50384;BME280;36301;48.310;12.786;2022-10-16T08:18:14;96566.97;;;15.31;100.00
50384;BME280;36301;48.310;12.786;2022-10-16T08:20:42;96572.28;;;15.45;99.49
50384;BME280;36301;48.310;12.786;2022-10-16T08:23:12;96573.06;;;15.78;98.43
50384;BME280;36301;48.310;12.786;2022-10-16T08:25:40;96577.97;;;16.08;96.27
50384;BME280;36301;48.310;12.786;2022-10-16T08:28:09;96580.59;;;16.19;96.44
50384;BME280;36301;48.310;12.786;2022-10-16T08:30:36;96586.34;;;16.14;97.04
50384;BME280;36301;48.310;12.786;2022-10-16T08:33:03;96591.66;;;16.21;97.57
50384;BME280;36301;48.310;12.786;2022-10-16T08:35:29;96596.50;;;16.47;97.49
50384;BME280;36301;48.310;12.786;2022-10-16T08:37:56;96598.34;;;16.68;97.38
50384;BME280;36301;48.310;12.786;2022-10-16T08:40:28;96591.84;;;16.69;95.74
50384;BME280;36301;48.310;12.786;2022-10-16T08:43:23;96597.22;;;17.32;93.61
50384;BME280;36301;48.310;12.786;2022-10-16T08:50:51;96620.94;;;18.20;84.78
50384;BME280;36301;48.310;12.786;2022-10-16T08:53:30;96619.28;;;18.71;83.95
50384;BME280;36301;48.310;12.786;2022-10-16T08:55:59;96618.56;;;19.21;80.28
50384;BME280;36301;48.310;12.786;2022-10-16T08:58:28;96630.78;;;20.62;73.03
50384;BME280;36301;48.310;12.786;2022-10-16T09:00:58;96634.78;;;21.46;70.11
50384;BME280;36301;48.310;12.786;2022-10-16T09:16:49;96641.75;;;20.71;71.85
50384;BME280;36301;48.310;12.786;2022-10-16T09:19:33;96644.41;;;19.65;76.42
50384;BME280;36301;48.310;12.786;2022-10-16T09:22:10;96644.50;;;19.58;74.89
50384;BME280;36301;48.310;12.786;2022-10-16T09:24:38;96642.88;;;20.54;72.34
50384;BME280;36301;48.310;12.786;2022-10-16T09:27:09;96637.84;;;20.56;69.01
50384;BME280;36301;48.310;12.786;2022-10-16T09:29:36;96648.47;;;20.20;70.79
50384;BME280;36301;48.310;12.786;2022-10-16T09:32:15;96646.44;;;20.28;70.42
50384;BME280;36301;48.310;12.786;2022-10-16T09:34:52;96649.00;;;20.75;70.01
50384;BME280;36301;48.310;12.786;2022-10-16T09:37:21;96648.03;;;20.85;71.04
50384;BME280;36301;48.310;12.786;2022-10-16T09:39:54;96639.44;;;20.73;70.45
50384;BME280;36301;48.310;12.786;2022-10-16T09:42:36;96641.06;;;20.47;71.95
50384;BME280;36301;48.310;12.786;2022-10-16T09:45:03;96641.28;;;20.57;72.96
50384;BME280;36301;48.310;12.786;2022-10-16T09:47:31;96629.75;;;20.56;72.98
50384;BME280;36301;48.310;12.786;2022-10-16T09:52:26;96636.06;;;20.26;72.86
50384;BME280;36301;48.310;12.786;2022-10-16T09:55:00;96651.19;;;19.96;73.13
50384;BME280;36301;48.310;12.786;2022-10-16T09:57:28;96643.56;;;20.15;71.96
50384;BME280;36301;48.310;12.786;2022-10-16T09:59:57;96656.84;;;19.79;74.19
50384;BME280;36301;48.310;12.786;2022-10-16T10:02:34;96650.25;;;19.83;74.67
50384;BME280;36301;48.310;12.786;2022-10-16T10:05:04;96639.19;;;19.54;74.89
50384;BME280;36301;48.310;12.786;2022-10-16T10:07:42;96643.59;;;19.41;74.96
50384;BME280;36301;48.310;12.786;2022-10-16T10:10:26;96637.63;;;19.30;76.98
50384;BME280;36301;48.310;12.786;2022-10-16T10:12:54;96641.38;;;19.09;77.75
50384;BME280;36301;48.310;12.786;2022-10-16T10:15:22;96631.25;;;19.20;77.77
50384;BME280;36301;48.310;12.786;2022-10-16T10:17:52;96634.56;;;19.01;78.27
50384;BME280;36301;48.310;12.786;2022-10-16T10:20:35;96631.09;;;19.04;80.16
50384;BME280;36301;48.310;12.786;2022-10-16T10:23:21;96625.19;;;19.16;82.32
50384;BME280;36301;48.310;12.786;2022-10-16T10:29:04;96636.44;;;19.31;79.16
50384;BME280;36301;48.310;12.786;2022-10-16T10:31:49;96628.81;;;19.02;74.09
50384;BME280;36301;48.310;12.786;2022-10-16T10:34:51;96613.56;;;19.23;76.64
50384;BME280;36301;48.310;12.786;2022-10-16T10:37:37;96621.09;;;19.04;77.07
50384;BME280;36301;48.310;12.786;2022-10-16T10:43:06;96632.00;;;18.93;76.92
50384;BME280;36301;48.310;12.786;2022-10-16T10:45:45;96633.31;;;18.82;74.86
50384;BME280;36301;48.310;12.786;2022-10-16T10:50:57;96624.28;;;18.96;74.92
50384;BME280;36301;48.310;12.786;2022-10-16T10:53:40;96630.75;;;19.02;77.39
50384;BME280;36301;48.310;12.786;2022-10-16T10:56:23;96625.41;;;18.98;74.02
50384;BME280;36301;48.310;12.786;2022-10-16T11:01:39;96638.69;;;19.36;76.73
50384;BME280;36301;48.310;12.786;2022-10-16T11:07:02;96629.53;;;19.06;77.31
50384;BME280;36301;48.310;12.786;2022-10-16T11:10:16;96628.38;;;19.07;77.56
50384;BME280;36301;48.310;12.786;2022-10-16T11:12:48;96627.78;;;19.19;78.66
50384;BME280;36301;48.310;12.786;2022-10-16T11:15:27;96623.13;;;19.24;77.92
50384;BME280;36301;48.310;12.786;2022-10-16T11:18:23;96621.31;;;19.17;80.74
50384;BME280;36301;48.310;12.786;2022-10-16T11:21:06;96631.88;;;19.31;79.50
50384;BME280;36301;48.310;12.786;2022-10-16T11:23:54;96626.50;;;19.31;79.36
50384;BME280;36301;48.310;12.786;2022-10-16T11:26:27;96632.75;;;19.48;80.34
50384;BME280;36301;48.310;12.786;2022-10-16T11:28:56;96624.78;;;19.41;79.77
50384;BME280;36301;48.310;12.786;2022-10-16T11:31:36;96624.69;;;19.48;78.56
50384;BME280;36301;48.310;12.786;2022-10-16T11:34:12;96627.75;;;19.23;79.36
50384;BME280;36301;48.310;12.786;2022-10-16T11:36:58;96621.63;;;19.23;81.08
50384;BME280;36301;48.310;12.786;2022-10-16T11:39:30;96618.44;;;19.31;81.35
50384;BME280;36301;48.310;12.786;2022-10-16T11:42:18;96614.59;;;19.32;83.01
50384;BME280;36301;48.310;12.786;2022-10-16T11:47:41;96615.13;;;19.47;79.66
50384;BME280;36301;48.310;12.786;2022-10-16T11:50:59;96608.03;;;19.60;82.99
50384;BME280;36301;48.310;12.786;2022-10-16T11:53:53;96611.38;;;19.68;81.40
50384;BME280;36301;48.310;12.786;2022-10-16T11:56:23;96612.94;;;19.65;78.40
50384;BME280;36301;48.310;12.786;2022-10-16T11:59:07;96622.16;;;19.64;78.74
50384;BME280;36301;48.310;12.786;2022-10-16T12:01:51;96622.31;;;19.54;76.22
50384;BME280;36301;48.310;12.786;2022-10-16T12:04:34;96614.66;;;19.52;78.57
50384;BME280;36301;48.310;12.786;2022-10-16T12:07:09;96614.66;;;19.52;78.02
50384;BME280;36301;48.310;12.786;2022-10-16T12:09:39;96610.66;;;19.64;77.75
50384;BME280;36301;48.310;12.786;2022-10-16T12:12:28;96610.53;;;19.71;78.79
50384;BME280;36301;48.310;12.786;2022-10-16T12:15:20;96610.81;;;19.77;78.83
50384;BME280;36301;48.310;12.786;2022-10-16T12:18:21;96608.78;;;19.84;79.62
50384;BME280;36301;48.310;12.786;2022-10-16T12:20:57;96613.41;;;19.84;78.88
50384;BME280;36301;48.310;12.786;2022-10-16T12:23:26;96618.59;;;19.94;76.24
50384;BME280;36301;48.310;12.786;2022-10-16T12:25:57;96610.09;;;19.96;75.08
50384;BME280;36301;48.310;12.786;2022-10-16T12:28:29;96609.91;;;20.07;75.80
50384;BME280;36301;48.310;12.786;2022-10-16T12:31:00;96617.63;;;20.05;75.74
50384;BME280;36301;48.310;12.786;2022-10-16T12:33:39;96619.34;;;19.95;76.89
50384;BME280;36301;48.310;12.786;2022-10-16T12:36:27;96621.56;;;20.00;77.33
50384;BME280;36301;48.310;12.786;2022-10-16T12:38:55;96617.88;;;19.90;77.56
50384;BME280;36301;48.310;12.786;2022-10-16T12:41:29;96617.34;;;19.99;76.25
50384;BME280;36301;48.310;12.786;2022-10-16T12:43:57;96623.53;;;19.96;76.32
50384;BME280;36301;48.310;12.786;2022-10-16T12:46:37;96623.06;;;20.01;77.96
50384;BME280;36301;48.310;12.786;2022-10-16T12:49:20;96621.09;;;20.05;78.04
50384;BME280;36301;48.310;12.786;2022-10-16T12:51:47;96622.13;;;20.11;77.87
50384;BME280;36301;48.310;12.786;2022-10-16T12:59:53;96613.81;;;20.26;80.70
50384;BME280;36301;48.310;12.786;2022-10-16T13:08:32;96627.09;;;20.13;77.98
50384;BME280;36301;48.310;12.786;2022-10-16T13:30:22;96643.41;;;20.65;76.60
50384;BME280;36301;48.310;12.786;2022-10-16T13:33:05;96643.75;;;20.67;77.73
50384;BME280;36301;48.310;12.786;2022-10-16T13:35:35;96640.72;;;20.65;77.37
50384;BME280;36301;48.310;12.786;2022-10-16T13:38:13;96642.66;;;20.65;77.94
50384;BME280;36301;48.310;12.786;2022-10-16T13:41:00;96642.50;;;20.72;77.45
50384;BME280;36301;48.310;12.786;2022-10-16T13:45:59;96644.09;;;20.89;78.18
50384;BME280;36301;48.310;12.786;2022-10-16T13:48:26;96642.66;;;20.85;77.80
50384;BME280;36301;48.310;12.786;2022-10-16T13:51:18;96643.13;;;20.80;76.59
50384;BME280;36301;48.310;12.786;2022-10-16T13:53:45;96638.25;;;20.75;75.63
50384;BME280;36301;48.310;12.786;2022-10-16T13:56:24;96648.53;;;20.80;75.47
50384;BME280;36301;48.310;12.786;2022-10-16T13:59:05;96635.41;;;20.82;76.12
50384;BME280;36301;48.310;12.786;2022-10-16T14:01:40;96640.72;;;20.85;74.62
50384;BME280;36301;48.310;12.786;2022-10-16T14:04:10;96637.34;;;20.81;75.29
50384;BME280;36301;48.310;12.786;2022-10-16T14:06:41;96642.38;;;20.79;76.28
50384;BME280;36301;48.310;12.786;2022-10-16T14:09:19;96644.66;;;20.81;77.61
50384;BME280;36301;48.310;12.786;2022-10-16T14:11:52;96644.13;;;20.69;77.80
50384;BME280;36301;48.310;12.786;2022-10-16T14:14:19;96650.69;;;20.68;75.33
50384;BME280;36301;48.310;12.786;2022-10-16T14:16:47;96646.94;;;20.62;77.34
50384;BME280;36301;48.310;12.786;2022-10-16T14:19:25;96650.84;;;20.58;76.79
50384;BME280;36301;48.310;12.786;2022-10-16T14:21:53;96655.84;;;20.59;76.33
50384;BME280;36301;48.310;12.786;2022-10-16T14:24:33;96659.06;;;20.70;75.63